sensor_id;sensor_type;location;lat;lon;timestamp;temperature;humidity
26537;DHT22;14204;51.262;5.488;2023-06-26T00:00:29;25.20;99.90
26537;DHT22;14204;51.262;5.488;2023-06-26T00:02:55;25.20;99.90
26537;DHT22;14204;51.262;5.488;2023-06-26T00:05:21;25.20;99.90
26537;DHT22;14204;51.262;5.488;2023-06-26T00:07:47;25.10;99.90
26537;DHT22;14204;51.262;5.488;2023-06-26T00:10:12;25.10;99.90
26537;DHT22;14204;51.262;5.488;2023-06-26T00:12:38;25.00;99.90
26537;DHT22;14204;51.262;5.488;2023-06-26T00:15:04;25.00;99.90
26537;DHT22;14204;51.262;5.488;2023-06-26T00:17:30;25.00;99.90
26537;DHT22;14204;51.262;5.488;2023-06-26T00:20:02;25.00;99.90
26537;DHT22;14204;51.262;5.488;2023-06-26T00:22:28;24.90;99.90
26537;DHT22;14204;51.262;5.488;2023-06-26T00:24:54;24.90;99.90
26537;DHT22;14204;51.262;5.488;2023-06-26T00:27:20;24.80;99.90
26537;DHT22;14204;51.262;5.488;2023-06-26T00:29:45;24.80;99.90
26537;DHT22;14204;51.262;5.488;2023-06-26T00:32:11;24.80;99.90
26537;DHT22;14204;51.262;5.488;2023-06-26T00:34:37;24.80;99.90
26537;DHT22;14204;51.262;5.488;2023-06-26T00:37:03;24.80;99.90
26537;DHT22;14204;51.262;5.488;2023-06-26T00:39:29;24.80;99.90
26537;DHT22;14204;51.262;5.488;2023-06-26T00:41:55;24.80;99.90
26537;DHT22;14204;51.262;5.488;2023-06-26T00:44:20;24.80;99.90
26537;DHT22;14204;51.262;5.488;2023-06-26T00:46:46;24.80;99.90
26537;DHT22;14204;51.262;5.488;2023-06-26T00:49:12;24.80;99.90
26537;DHT22;14204;51.262;5.488;2023-06-26T00:51:40;24.80;99.90
26537;DHT22;14204;51.262;5.488;2023-06-26T00:54:05;24.70;99.90
26537;DHT22;14204;51.262;5.488;2023-06-26T00:56:32;24.70;99.90
26537;DHT22;14204;51.262;5.488;2023-06-26T00:58:58;24.70;99.90
26537;DHT22;14204;51.262;5.488;2023-06-26T01:01:24;24.70;99.90
26537;DHT22;14204;51.262;5.488;2023-06-26T01:03:51;24.70;99.90
26537;DHT22;14204;51.262;5.488;2023-06-26T01:06:20;24.70;99.90
26537;DHT22;14204;51.262;5.488;2023-06-26T01:08:46;24.70;99.90
26537;DHT22;14204;51.262;5.488;2023-06-26T01:11:13;24.70;99.90
26537;DHT22;14204;51.262;5.488;2023-06-26T01:13:41;24.70;99.90
26537;DHT22;14204;51.262;5.488;2023-06-26T01:16:08;24.70;99.90
26537;DHT22;14204;51.262;5.488;2023-06-26T01:18:36;24.70;99.90
26537;DHT22;14204;51.262;5.488;2023-06-26T01:21:03;24.70;99.90
26537;DHT22;14204;51.262;5.488;2023-06-26T01:28:41;24.60;99.90
26537;DHT22;14204;51.262;5.488;2023-06-26T01:31:07;24.50;99.90
26537;DHT22;14204;51.262;5.488;2023-06-26T01:33:34;24.50;99.90
26537;DHT22;14204;51.262;5.488;2023-06-26T01:36:00;24.50;99.90
26537;DHT22;14204;51.262;5.488;2023-06-26T01:38:26;24.50;99.90
26537;DHT22;14204;51.262;5.488;2023-06-26T01:40:53;24.50;99.90
26537;DHT22;14204;51.262;5.488;2023-06-26T01:46:11;24.60;99.90
26537;DHT22;14204;51.262;5.488;2023-06-26T01:48:47;24.60;99.90
26537;DHT22;14204;51.262;5.488;2023-06-26T01:51:16;24.50;99.90
26537;DHT22;14204;51.262;5.488;2023-06-26T01:53:46;24.60;99.90
26537;DHT22;14204;51.262;5.488;2023-06-26T01:56:16;24.60;99.90
26537;DHT22;14204;51.262;5.488;2023-06-26T01:58:46;24.50;99.90
26537;DHT22;14204;51.262;5.488;2023-06-26T02:01:15;24.50;99.90
26537;DHT22;14204;51.262;5.488;2023-06-26T02:03:41;24.50;99.90
26537;DHT22;14204;51.262;5.488;2023-06-26T02:06:07;24.40;99.90
26537;DHT22;14204;51.262;5.488;2023-06-26T02:08:33;24.30;99.90
26537;DHT22;14204;51.262;5.488;2023-06-26T02:10:58;24.10;99.90
26537;DHT22;14204;51.262;5.488;2023-06-26T02:13:24;24.10;99.90
26537;DHT22;14204;51.262;5.488;2023-06-26T02:15:50;24.00;99.90
26537;DHT22;14204;51.262;5.488;2023-06-26T02:18:15;24.10;99.90
26537;DHT22;14204;51.262;5.488;2023-06-26T02:20:41;24.00;99.90
26537;DHT22;14204;51.262;5.488;2023-06-26T02:23:07;23.90;99.90
26537;DHT22;14204;51.262;5.488;2023-06-26T02:25:33;23.90;99.90
26537;DHT22;14204;51.262;5.488;2023-06-26T02:27:58;24.00;99.90
26537;DHT22;14204;51.262;5.488;2023-06-26T02:30:24;23.90;99.90
26537;DHT22;14204;51.262;5.488;2023-06-26T02:32:50;23.90;99.90
26537;DHT22;14204;51.262;5.488;2023-06-26T02:35:15;23.90;99.90
26537;DHT22;14204;51.262;5.488;2023-06-26T02:37:41;23.90;99.90
26537;DHT22;14204;51.262;5.488;2023-06-26T02:40:07;23.90;99.90
26537;DHT22;14204;51.262;5.488;2023-06-26T02:42:35;23.90;99.90
26537;DHT22;14204;51.262;5.488;2023-06-26T02:45:00;23.80;99.90
26537;DHT22;14204;51.262;5.488;2023-06-26T02:47:26;23.80;99.90
26537;DHT22;14204;51.262;5.488;2023-06-26T02:49:51;23.80;99.90
26537;DHT22;14204;51.262;5.488;2023-06-26T02:52:17;23.80;99.90
26537;DHT22;14204;51.262;5.488;2023-06-26T02:54:44;23.70;99.90
26537;DHT22;14204;51.262;5.488;2023-06-26T02:57:10;23.70;99.90
26537;DHT22;14204;51.262;5.488;2023-06-26T02:59:35;23.70;99.90
26537;DHT22;14204;51.262;5.488;2023-06-26T03:02:01;23.70;99.90
26537;DHT22;14204;51.262;5.488;2023-06-26T03:04:26;23.70;99.90
26537;DHT22;14204;51.262;5.488;2023-06-26T03:06:52;23.70;99.90
26537;DHT22;14204;51.262;5.488;2023-06-26T03:09:18;23.80;99.90
26537;DHT22;14204;51.262;5.488;2023-06-26T03:11:43;23.80;99.90
26537;DHT22;14204;51.262;5.488;2023-06-26T03:14:09;23.80;99.90
26537;DHT22;14204;51.262;5.488;2023-06-26T03:16:35;23.70;99.90
26537;DHT22;14204;51.262;5.488;2023-06-26T03:19:00;23.80;99.90
26537;DHT22;14204;51.262;5.488;2023-06-26T03:21:26;23.80;99.90
26537;DHT22;14204;51.262;5.488;2023-06-26T03:23:52;23.70;99.90
26537;DHT22;14204;51.262;5.488;2023-06-26T03:26:17;23.70;99.90
26537;DHT22;14204;51.262;5.488;2023-06-26T03:28:43;23.70;99.90
26537;DHT22;14204;51.262;5.488;2023-06-26T03:31:09;23.70;99.90
26537;DHT22;14204;51.262;5.488;2023-06-26T03:33:34;23.80;99.90
26537;DHT22;14204;51.262;5.488;2023-06-26T03:36:00;23.60;99.90
26537;DHT22;14204;51.262;5.488;2023-06-26T03:38:25;23.70;99.90
26537;DHT22;14204;51.262;5.488;2023-06-26T03:40:51;23.60;99.90
26537;DHT22;14204;51.262;5.488;2023-06-26T03:43:17;23.60;99.90
26537;DHT22;14204;51.262;5.488;2023-06-26T03:45:43;23.40;99.90
26537;DHT22;14204;51.262;5.488;2023-06-26T03:48:09;23.50;99.90
26537;DHT22;14204;51.262;5.488;2023-06-26T03:50:34;23.50;99.90
26537;DHT22;14204;51.262;5.488;2023-06-26T03:53:00;23.40;99.90
26537;DHT22;14204;51.262;5.488;2023-06-26T03:55:25;23.30;99.90
26537;DHT22;14204;51.262;5.488;2023-06-26T03:57:51;23.40;99.90
26537;DHT22;14204;51.262;5.488;2023-06-26T04:00:17;23.40;99.90
26537;DHT22;14204;51.262;5.488;2023-06-26T04:02:43;23.40;99.90
26537;DHT22;14204;51.262;5.488;2023-06-26T04:05:08;23.40;99.90
26537;DHT22;14204;51.262;5.488;2023-06-26T04:07:34;23.40;99.90
26537;DHT22;14204;51.262;5.488;2023-06-26T04:10:01;23.40;99.90
26537;DHT22;14204;51.262;5.488;2023-06-26T04:12:27;23.50;99.90
26537;DHT22;14204;51.262;5.488;2023-06-26T04:14:53;23.40;99.90
26537;DHT22;14204;51.262;5.488;2023-06-26T04:17:18;23.40;99.90
26537;DHT22;14204;51.262;5.488;2023-06-26T04:19:45;23.40;99.90
26537;DHT22;14204;51.262;5.488;2023-06-26T04:22:10;23.30;99.90
26537;DHT22;14204;51.262;5.488;2023-06-26T04:24:36;23.30;99.90
26537;DHT22;14204;51.262;5.488;2023-06-26T04:27:02;23.30;99.90
26537;DHT22;14204;51.262;5.488;2023-06-26T04:29:28;23.20;99.90
26537;DHT22;14204;51.262;5.488;2023-06-26T04:31:54;23.10;99.90
26537;DHT22;14204;51.262;5.488;2023-06-26T04:34:27;23.20;99.90
26537;DHT22;14204;51.262;5.488;2023-06-26T04:36:53;23.20;99.90
26537;DHT22;14204;51.262;5.488;2023-06-26T04:39:18;23.20;99.90
26537;DHT22;14204;51.262;5.488;2023-06-26T04:41:45;23.20;99.90
26537;DHT22;14204;51.262;5.488;2023-06-26T04:44:11;23.10;99.90
26537;DHT22;14204;51.262;5.488;2023-06-26T04:46:37;23.00;99.90
26537;DHT22;14204;51.262;5.488;2023-06-26T04:49:07;23.10;99.90
26537;DHT22;14204;51.262;5.488;2023-06-26T04:51:33;23.20;99.90
26537;DHT22;14204;51.262;5.488;2023-06-26T04:53:58;23.10;99.90
26537;DHT22;14204;51.262;5.488;2023-06-26T04:56:24;23.20;99.90
26537;DHT22;14204;51.262;5.488;2023-06-26T04:58:50;23.10;99.90
26537;DHT22;14204;51.262;5.488;2023-06-26T05:01:15;23.10;99.90
26537;DHT22;14204;51.262;5.488;2023-06-26T05:03:41;23.10;99.90
26537;DHT22;14204;51.262;5.488;2023-06-26T05:06:06;23.10;99.90
26537;DHT22;14204;51.262;5.488;2023-06-26T05:08:32;22.90;99.90
26537;DHT22;14204;51.262;5.488;2023-06-26T05:10:58;23.00;99.90
26537;DHT22;14204;51.262;5.488;2023-06-26T05:13:27;22.90;99.90
26537;DHT22;14204;51.262;5.488;2023-06-26T05:15:53;22.80;99.90
26537;DHT22;14204;51.262;5.488;2023-06-26T05:18:19;22.90;99.90
26537;DHT22;14204;51.262;5.488;2023-06-26T05:20:45;23.00;99.90
26537;DHT22;14204;51.262;5.488;2023-06-26T05:23:11;23.00;99.90
26537;DHT22;14204;51.262;5.488;2023-06-26T05:25:38;23.10;99.90
26537;DHT22;14204;51.262;5.488;2023-06-26T05:28:04;23.10;99.90
26537;DHT22;14204;51.262;5.488;2023-06-26T05:30:36;23.10;99.90
26537;DHT22;14204;51.262;5.488;2023-06-26T05:33:02;23.10;99.90
26537;DHT22;14204;51.262;5.488;2023-06-26T05:35:29;23.20;99.90
26537;DHT22;14204;51.262;5.488;2023-06-26T05:37:56;23.20;99.90
26537;DHT22;14204;51.262;5.488;2023-06-26T05:40:23;22.90;99.90
26537;DHT22;14204;51.262;5.488;2023-06-26T05:42:49;22.90;99.90
26537;DHT22;14204;51.262;5.488;2023-06-26T05:45:15;22.80;99.90
26537;DHT22;14204;51.262;5.488;2023-06-26T05:47:41;22.80;99.90
26537;DHT22;14204;51.262;5.488;2023-06-26T05:50:08;22.80;99.90
26537;DHT22;14204;51.262;5.488;2023-06-26T05:52:35;22.80;99.90
26537;DHT22;14204;51.262;5.488;2023-06-26T05:55:01;22.80;99.90
26537;DHT22;14204;51.262;5.488;2023-06-26T05:57:29;22.80;99.90
26537;DHT22;14204;51.262;5.488;2023-06-26T05:59:55;22.80;99.90
26537;DHT22;14204;51.262;5.488;2023-06-26T06:02:22;22.80;99.90
26537;DHT22;14204;51.262;5.488;2023-06-26T06:04:47;22.80;99.90
26537;DHT22;14204;51.262;5.488;2023-06-26T06:07:13;22.80;99.90
26537;DHT22;14204;51.262;5.488;2023-06-26T06:09:39;22.80;99.90
26537;DHT22;14204;51.262;5.488;2023-06-26T06:12:06;22.70;99.90
26537;DHT22;14204;51.262;5.488;2023-06-26T06:14:35;22.70;99.90
26537;DHT22;14204;51.262;5.488;2023-06-26T06:17:01;22.70;99.90
26537;DHT22;14204;51.262;5.488;2023-06-26T06:19:27;22.70;99.90
26537;DHT22;14204;51.262;5.488;2023-06-26T06:21:53;22.80;99.90
26537;DHT22;14204;51.262;5.488;2023-06-26T06:24:19;22.90;99.90
26537;DHT22;14204;51.262;5.488;2023-06-26T06:26:45;23.00;99.90
26537;DHT22;14204;51.262;5.488;2023-06-26T06:29:11;23.00;99.90
26537;DHT22;14204;51.262;5.488;2023-06-26T06:31:36;23.00;99.90
26537;DHT22;14204;51.262;5.488;2023-06-26T06:34:02;22.90;99.90
26537;DHT22;14204;51.262;5.488;2023-06-26T06:36:28;22.80;99.90
26537;DHT22;14204;51.262;5.488;2023-06-26T06:38:53;22.70;99.90
26537;DHT22;14204;51.262;5.488;2023-06-26T06:41:20;22.80;99.90
26537;DHT22;14204;51.262;5.488;2023-06-26T06:43:46;22.70;99.90
26537;DHT22;14204;51.262;5.488;2023-06-26T06:46:11;22.80;99.90
26537;DHT22;14204;51.262;5.488;2023-06-26T06:48:37;22.90;99.90
26537;DHT22;14204;51.262;5.488;2023-06-26T06:51:03;22.90;99.90
26537;DHT22;14204;51.262;5.488;2023-06-26T06:53:29;23.10;99.90
26537;DHT22;14204;51.262;5.488;2023-06-26T06:55:55;23.00;99.90
26537;DHT22;14204;51.262;5.488;2023-06-26T06:58:20;23.10;99.90
26537;DHT22;14204;51.262;5.488;2023-06-26T07:00:46;23.20;99.90
26537;DHT22;14204;51.262;5.488;2023-06-26T07:03:12;23.30;99.90
26537;DHT22;14204;51.262;5.488;2023-06-26T07:05:38;23.40;99.90
26537;DHT22;14204;51.262;5.488;2023-06-26T07:08:04;23.40;99.90
26537;DHT22;14204;51.262;5.488;2023-06-26T07:10:30;23.50;99.90
26537;DHT22;14204;51.262;5.488;2023-06-26T07:12:56;23.50;99.90
26537;DHT22;14204;51.262;5.488;2023-06-26T07:15:22;23.60;99.90
26537;DHT22;14204;51.262;5.488;2023-06-26T07:17:47;23.70;99.90
26537;DHT22;14204;51.262;5.488;2023-06-26T07:20:13;23.80;99.90
26537;DHT22;14204;51.262;5.488;2023-06-26T07:22:41;23.80;99.90
26537;DHT22;14204;51.262;5.488;2023-06-26T07:25:08;23.90;99.90
26537;DHT22;14204;51.262;5.488;2023-06-26T07:27:40;24.00;99.90
26537;DHT22;14204;51.262;5.488;2023-06-26T07:30:07;24.00;99.90
26537;DHT22;14204;51.262;5.488;2023-06-26T07:32:36;24.00;99.90
26537;DHT22;14204;51.262;5.488;2023-06-26T07:35:02;24.00;99.90
26537;DHT22;14204;51.262;5.488;2023-06-26T07:37:28;24.10;99.90
26537;DHT22;14204;51.262;5.488;2023-06-26T07:39:54;24.30;99.90
26537;DHT22;14204;51.262;5.488;2023-06-26T07:42:19;24.20;99.90
26537;DHT22;14204;51.262;5.488;2023-06-26T07:44:45;24.20;99.90
26537;DHT22;14204;51.262;5.488;2023-06-26T07:47:11;24.30;99.90
26537;DHT22;14204;51.262;5.488;2023-06-26T07:49:37;24.20;99.90
26537;DHT22;14204;51.262;5.488;2023-06-26T07:52:04;24.20;99.90
26537;DHT22;14204;51.262;5.488;2023-06-26T07:54:30;24.20;99.90
26537;DHT22;14204;51.262;5.488;2023-06-26T07:57:00;24.40;99.90
26537;DHT22;14204;51.262;5.488;2023-06-26T07:59:28;24.40;99.90
26537;DHT22;14204;51.262;5.488;2023-06-26T08:01:55;24.50;99.90
26537;DHT22;14204;51.262;5.488;2023-06-26T08:04:23;24.60;99.90
26537;DHT22;14204;51.262;5.488;2023-06-26T08:06:50;24.70;99.90
26537;DHT22;14204;51.262;5.488;2023-06-26T08:09:17;24.80;99.90
26537;DHT22;14204;51.262;5.488;2023-06-26T08:11:43;24.80;99.90
26537;DHT22;14204;51.262;5.488;2023-06-26T08:14:09;24.80;99.90
26537;DHT22;14204;51.262;5.488;2023-06-26T08:16:35;24.70;99.90
26537;DHT22;14204;51.262;5.488;2023-06-26T08:19:00;24.70;99.90
26537;DHT22;14204;51.262;5.488;2023-06-26T08:21:26;24.80;99.90
26537;DHT22;14204;51.262;5.488;2023-06-26T08:23:52;24.60;99.90
26537;DHT22;14204;51.262;5.488;2023-06-26T08:26:18;24.80;99.90
26537;DHT22;14204;51.262;5.488;2023-06-26T08:28:43;24.80;99.90
26537;DHT22;14204;51.262;5.488;2023-06-26T08:31:09;24.90;99.90
26537;DHT22;14204;51.262;5.488;2023-06-26T08:33:34;24.90;99.90
26537;DHT22;14204;51.262;5.488;2023-06-26T08:36:00;24.90;99.90
26537;DHT22;14204;51.262;5.488;2023-06-26T08:38:26;24.90;99.90
26537;DHT22;14204;51.262;5.488;2023-06-26T08:40:51;24.90;99.90
26537;DHT22;14204;51.262;5.488;2023-06-26T08:43:17;25.00;99.90
26537;DHT22;14204;51.262;5.488;2023-06-26T08:45:43;25.20;99.90
26537;DHT22;14204;51.262;5.488;2023-06-26T08:48:09;25.40;99.90
26537;DHT22;14204;51.262;5.488;2023-06-26T08:50:35;25.30;99.90
26537;DHT22;14204;51.262;5.488;2023-06-26T08:55:35;25.60;99.90
26537;DHT22;14204;51.262;5.488;2023-06-26T08:58:03;25.50;99.90
26537;DHT22;14204;51.262;5.488;2023-06-26T09:00:30;25.70;99.90
26537;DHT22;14204;51.262;5.488;2023-06-26T09:02:56;25.80;99.90
26537;DHT22;14204;51.262;5.488;2023-06-26T09:05:21;25.90;99.90
26537;DHT22;14204;51.262;5.488;2023-06-26T09:07:47;26.10;99.90
26537;DHT22;14204;51.262;5.488;2023-06-26T09:10:13;26.20;99.90
26537;DHT22;14204;51.262;5.488;2023-06-26T09:12:38;26.40;99.90
26537;DHT22;14204;51.262;5.488;2023-06-26T09:15:06;26.40;99.90
26537;DHT22;14204;51.262;5.488;2023-06-26T09:17:38;26.20;99.90
26537;DHT22;14204;51.262;5.488;2023-06-26T09:20:05;26.10;99.90
26537;DHT22;14204;51.262;5.488;2023-06-26T09:22:37;26.00;99.90
26537;DHT22;14204;51.262;5.488;2023-06-26T09:25:05;26.00;99.90
26537;DHT22;14204;51.262;5.488;2023-06-26T09:27:31;25.70;99.90
26537;DHT22;14204;51.262;5.488;2023-06-26T09:29:57;25.70;99.90
26537;DHT22;14204;51.262;5.488;2023-06-26T09:32:27;26.10;99.90
26537;DHT22;14204;51.262;5.488;2023-06-26T09:34:55;26.30;99.90
26537;DHT22;14204;51.262;5.488;2023-06-26T09:37:21;26.60;99.90
26537;DHT22;14204;51.262;5.488;2023-06-26T09:39:48;26.80;99.90
26537;DHT22;14204;51.262;5.488;2023-06-26T09:42:15;26.90;99.90
26537;DHT22;14204;51.262;5.488;2023-06-26T09:44:47;27.00;99.90
26537;DHT22;14204;51.262;5.488;2023-06-26T09:47:16;26.60;99.90
26537;DHT22;14204;51.262;5.488;2023-06-26T09:49:43;26.40;99.90
26537;DHT22;14204;51.262;5.488;2023-06-26T09:52:09;26.50;99.90
26537;DHT22;14204;51.262;5.488;2023-06-26T09:54:35;26.60;99.90
26537;DHT22;14204;51.262;5.488;2023-06-26T09:57:09;26.90;99.90
26537;DHT22;14204;51.262;5.488;2023-06-26T09:59:35;27.10;99.90
26537;DHT22;14204;51.262;5.488;2023-06-26T10:02:00;27.30;99.90
26537;DHT22;14204;51.262;5.488;2023-06-26T10:04:26;27.10;99.90
26537;DHT22;14204;51.262;5.488;2023-06-26T10:06:55;26.70;99.90
26537;DHT22;14204;51.262;5.488;2023-06-26T10:09:23;26.60;99.90
26537;DHT22;14204;51.262;5.488;2023-06-26T10:12:17;26.80;99.90
26537;DHT22;14204;51.262;5.488;2023-06-26T10:14:43;27.00;99.90
26537;DHT22;14204;51.262;5.488;2023-06-26T10:17:16;27.20;99.00
26537;DHT22;14204;51.262;5.488;2023-06-26T10:19:44;27.50;99.90
26537;DHT22;14204;51.262;5.488;2023-06-26T10:22:14;27.60;99.20
26537;DHT22;14204;51.262;5.488;2023-06-26T10:24:41;27.70;97.20
26537;DHT22;14204;51.262;5.488;2023-06-26T10:27:16;27.70;97.50
26537;DHT22;14204;51.262;5.488;2023-06-26T10:29:44;27.80;96.40
26537;DHT22;14204;51.262;5.488;2023-06-26T10:32:12;28.00;95.80
26537;DHT22;14204;51.262;5.488;2023-06-26T10:34:38;27.80;96.30
26537;DHT22;14204;51.262;5.488;2023-06-26T10:37:04;27.70;96.60
26537;DHT22;14204;51.262;5.488;2023-06-26T10:42:11;27.50;93.60
26537;DHT22;14204;51.262;5.488;2023-06-26T10:44:41;27.70;94.00
26537;DHT22;14204;51.262;5.488;2023-06-26T10:47:11;27.70;93.30
26537;DHT22;14204;51.262;5.488;2023-06-26T10:49:38;27.90;94.40
26537;DHT22;14204;51.262;5.488;2023-06-26T10:52:07;28.10;93.70
26537;DHT22;14204;51.262;5.488;2023-06-26T10:54:33;28.10;94.00
26537;DHT22;14204;51.262;5.488;2023-06-26T10:57:01;28.20;95.70
26537;DHT22;14204;51.262;5.488;2023-06-26T10:59:32;28.30;92.10
26537;DHT22;14204;51.262;5.488;2023-06-26T11:02:05;28.50;91.70
26537;DHT22;14204;51.262;5.488;2023-06-26T11:04:48;28.60;92.60
26537;DHT22;14204;51.262;5.488;2023-06-26T11:07:24;28.40;88.90
26537;DHT22;14204;51.262;5.488;2023-06-26T11:10:09;28.60;92.30
26537;DHT22;14204;51.262;5.488;2023-06-26T11:12:39;28.40;86.80
26537;DHT22;14204;51.262;5.488;2023-06-26T11:15:17;28.70;90.80
26537;DHT22;14204;51.262;5.488;2023-06-26T11:17:45;28.80;89.10
26537;DHT22;14204;51.262;5.488;2023-06-26T11:20:14;28.70;90.60
26537;DHT22;14204;51.262;5.488;2023-06-26T11:22:42;28.80;90.00
26537;DHT22;14204;51.262;5.488;2023-06-26T11:25:09;28.90;92.10
26537;DHT22;14204;51.262;5.488;2023-06-26T11:30:05;28.80;90.70
26537;DHT22;14204;51.262;5.488;2023-06-26T11:32:31;28.80;91.40
26537;DHT22;14204;51.262;5.488;2023-06-26T11:34:58;28.60;86.70
26537;DHT22;14204;51.262;5.488;2023-06-26T11:37:25;28.50;88.00
26537;DHT22;14204;51.262;5.488;2023-06-26T11:39:51;28.50;89.00
26537;DHT22;14204;51.262;5.488;2023-06-26T11:42:20;28.30;85.20
26537;DHT22;14204;51.262;5.488;2023-06-26T11:44:46;28.10;87.30
26537;DHT22;14204;51.262;5.488;2023-06-26T11:47:22;28.10;87.20
26537;DHT22;14204;51.262;5.488;2023-06-26T11:49:49;28.30;88.10
26537;DHT22;14204;51.262;5.488;2023-06-26T11:52:15;28.40;87.10
26537;DHT22;14204;51.262;5.488;2023-06-26T11:54:42;28.50;86.30
26537;DHT22;14204;51.262;5.488;2023-06-26T11:57:08;28.60;88.80
26537;DHT22;14204;51.262;5.488;2023-06-26T11:59:39;28.40;85.30
26537;DHT22;14204;51.262;5.488;2023-06-26T12:02:10;28.10;87.90
26537;DHT22;14204;51.262;5.488;2023-06-26T12:04:41;28.00;85.00
26537;DHT22;14204;51.262;5.488;2023-06-26T12:07:08;28.20;86.90
26537;DHT22;14204;51.262;5.488;2023-06-26T12:09:46;28.30;84.10
26537;DHT22;14204;51.262;5.488;2023-06-26T12:12:15;28.30;84.20
26537;DHT22;14204;51.262;5.488;2023-06-26T12:14:43;28.20;80.10
26537;DHT22;14204;51.262;5.488;2023-06-26T12:17:13;28.40;83.40
26537;DHT22;14204;51.262;5.488;2023-06-26T12:19:43;28.60;83.70
26537;DHT22;14204;51.262;5.488;2023-06-26T12:22:10;28.70;82.90
26537;DHT22;14204;51.262;5.488;2023-06-26T12:24:39;28.90;84.00
26537;DHT22;14204;51.262;5.488;2023-06-26T12:27:10;28.70;82.00
26537;DHT22;14204;51.262;5.488;2023-06-26T12:29:37;28.90;84.30
26537;DHT22;14204;51.262;5.488;2023-06-26T12:32:03;29.00;86.00
26537;DHT22;14204;51.262;5.488;2023-06-26T12:34:32;29.00;85.30
26537;DHT22;14204;51.262;5.488;2023-06-26T12:37:16;28.90;84.80
26537;DHT22;14204;51.262;5.488;2023-06-26T12:39:55;28.70;87.60
26537;DHT22;14204;51.262;5.488;2023-06-26T12:42:24;28.70;89.50
26537;DHT22;14204;51.262;5.488;2023-06-26T12:44:52;28.80;90.10
26537;DHT22;14204;51.262;5.488;2023-06-26T12:47:22;28.90;90.20
26537;DHT22;14204;51.262;5.488;2023-06-26T12:49:52;28.90;91.30
26537;DHT22;14204;51.262;5.488;2023-06-26T12:52:18;28.70;89.70
26537;DHT22;14204;51.262;5.488;2023-06-26T12:54:46;28.80;89.60
26537;DHT22;14204;51.262;5.488;2023-06-26T12:57:13;28.70;87.20
26537;DHT22;14204;51.262;5.488;2023-06-26T12:59:42;28.90;88.10
26537;DHT22;14204;51.262;5.488;2023-06-26T13:02:08;29.00;90.10
26537;DHT22;14204;51.262;5.488;2023-06-26T13:04:34;29.00;91.70
26537;DHT22;14204;51.262;5.488;2023-06-26T13:07:00;29.00;91.30
26537;DHT22;14204;51.262;5.488;2023-06-26T13:09:26;28.70;89.50
26537;DHT22;14204;51.262;5.488;2023-06-26T13:11:53;28.80;88.60
26537;DHT22;14204;51.262;5.488;2023-06-26T13:14:19;28.60;90.20
26537;DHT22;14204;51.262;5.488;2023-06-26T13:16:45;28.30;88.20
26537;DHT22;14204;51.262;5.488;2023-06-26T13:19:10;28.60;90.70
26537;DHT22;14204;51.262;5.488;2023-06-26T13:21:36;28.80;90.20
26537;DHT22;14204;51.262;5.488;2023-06-26T13:24:03;28.80;89.20
26537;DHT22;14204;51.262;5.488;2023-06-26T13:26:29;28.50;89.70
26537;DHT22;14204;51.262;5.488;2023-06-26T13:28:55;28.30;86.60
26537;DHT22;14204;51.262;5.488;2023-06-26T13:31:21;28.20;89.10
26537;DHT22;14204;51.262;5.488;2023-06-26T13:33:47;28.10;88.60
26537;DHT22;14204;51.262;5.488;2023-06-26T13:36:17;28.00;87.80
26537;DHT22;14204;51.262;5.488;2023-06-26T13:38:43;28.30;87.70
26537;DHT22;14204;51.262;5.488;2023-06-26T13:41:09;28.40;86.70
26537;DHT22;14204;51.262;5.488;2023-06-26T13:43:35;28.50;88.10
26537;DHT22;14204;51.262;5.488;2023-06-26T13:46:01;28.60;87.10
26537;DHT22;14204;51.262;5.488;2023-06-26T13:48:27;28.70;87.20
26537;DHT22;14204;51.262;5.488;2023-06-26T13:50:53;28.60;86.40
26537;DHT22;14204;51.262;5.488;2023-06-26T13:53:18;28.50;88.80
26537;DHT22;14204;51.262;5.488;2023-06-26T13:55:44;28.40;87.10
26537;DHT22;14204;51.262;5.488;2023-06-26T13:58:10;28.30;85.30
26537;DHT22;14204;51.262;5.488;2023-06-26T14:00:37;28.20;85.40
26537;DHT22;14204;51.262;5.488;2023-06-26T14:03:06;28.30;84.90
26537;DHT22;14204;51.262;5.488;2023-06-26T14:05:35;28.30;85.70
26537;DHT22;14204;51.262;5.488;2023-06-26T14:08:05;28.40;86.00
26537;DHT22;14204;51.262;5.488;2023-06-26T14:10:31;28.20;85.90
26537;DHT22;14204;51.262;5.488;2023-06-26T14:12:58;27.80;84.80
26537;DHT22;14204;51.262;5.488;2023-06-26T14:15:24;28.00;88.00
26537;DHT22;14204;51.262;5.488;2023-06-26T14:17:50;27.80;90.10
26537;DHT22;14204;51.262;5.488;2023-06-26T14:20:17;27.60;90.10
26537;DHT22;14204;51.262;5.488;2023-06-26T14:22:43;27.50;90.60
26537;DHT22;14204;51.262;5.488;2023-06-26T14:25:10;27.50;91.20
26537;DHT22;14204;51.262;5.488;2023-06-26T14:27:38;27.40;90.80
26537;DHT22;14204;51.262;5.488;2023-06-26T14:30:04;27.30;90.50
26537;DHT22;14204;51.262;5.488;2023-06-26T14:32:30;27.20;90.30
26537;DHT22;14204;51.262;5.488;2023-06-26T14:34:56;27.20;90.10
26537;DHT22;14204;51.262;5.488;2023-06-26T14:37:22;27.20;90.20
26537;DHT22;14204;51.262;5.488;2023-06-26T14:39:49;27.20;89.80
26537;DHT22;14204;51.262;5.488;2023-06-26T14:42:15;27.30;87.50
26537;DHT22;14204;51.262;5.488;2023-06-26T14:44:40;27.40;88.60
26537;DHT22;14204;51.262;5.488;2023-06-26T14:47:06;27.20;85.50
26537;DHT22;14204;51.262;5.488;2023-06-26T14:49:32;27.10;86.80
26537;DHT22;14204;51.262;5.488;2023-06-26T14:51:57;27.10;87.10
26537;DHT22;14204;51.262;5.488;2023-06-26T14:54:23;27.00;88.80
26537;DHT22;14204;51.262;5.488;2023-06-26T14:56:49;26.90;89.20
26537;DHT22;14204;51.262;5.488;2023-06-26T14:59:15;26.80;86.90
26537;DHT22;14204;51.262;5.488;2023-06-26T15:01:40;26.60;89.10
26537;DHT22;14204;51.262;5.488;2023-06-26T15:04:06;26.60;90.70
26537;DHT22;14204;51.262;5.488;2023-06-26T15:06:32;26.60;91.20
26537;DHT22;14204;51.262;5.488;2023-06-26T15:08:59;26.60;91.10
26537;DHT22;14204;51.262;5.488;2023-06-26T15:11:24;26.60;91.40
26537;DHT22;14204;51.262;5.488;2023-06-26T15:13:50;26.70;91.30
26537;DHT22;14204;51.262;5.488;2023-06-26T15:16:16;26.70;90.90
26537;DHT22;14204;51.262;5.488;2023-06-26T15:18:42;26.60;91.10
26537;DHT22;14204;51.262;5.488;2023-06-26T15:21:08;26.50;91.60
26537;DHT22;14204;51.262;5.488;2023-06-26T15:23:36;26.50;91.80
26537;DHT22;14204;51.262;5.488;2023-06-26T15:26:04;26.40;91.20
26537;DHT22;14204;51.262;5.488;2023-06-26T15:28:29;26.40;92.10
26537;DHT22;14204;51.262;5.488;2023-06-26T15:30:55;26.50;92.10
26537;DHT22;14204;51.262;5.488;2023-06-26T15:33:20;26.50;92.40
26537;DHT22;14204;51.262;5.488;2023-06-26T15:35:46;26.50;93.00
26537;DHT22;14204;51.262;5.488;2023-06-26T15:38:12;26.50;91.90
26537;DHT22;14204;51.262;5.488;2023-06-26T15:40:37;26.50;92.10
26537;DHT22;14204;51.262;5.488;2023-06-26T15:43:03;26.50;92.80